Time,TemperatureF,DewpointF,PressureIn,WindDirection,WindDirectionDegrees,WindSpeedMPH,WindSpeedGustMPH,Humidity,HourlyPrecipIn,Conditions,Clouds,dailyrainin,SoftwareType,DateUTC
2013-04-27 00:05:00,53.8,52.1,30.17,SSE,157,2.2,-999.0,94,-99.99,,,0.01,Acu-Link.com,2013-04-27 04:05:00,
2013-04-27 00:21:00,53.6,52.5,30.18,WSW,247,1.7,-999.0,96,-99.99,,,0.02,Acu-Link.com,2013-04-27 04:21:00,
2013-04-27 00:36:00,53.4,52.8,30.20,NNE,22,0.0,-999.0,98,-99.99,,,0.02,Acu-Link.com,2013-04-27 04:36:00,
2013-04-27 00:51:00,53.2,52.9,30.20,ENE,67,2.2,-999.0,99,-99.99,,,0.03,Acu-Link.com,2013-04-27 04:51:00,
2013-04-27 01:06:00,52.9,52.6,30.19,ENE,67,0.0,-999.0,99,-99.99,,,0.04,Acu-Link.com,2013-04-27 05:06:00,
2013-04-27 01:21:00,52.9,52.6,30.20,SW,225,0.0,-999.0,99,-99.99,,,0.06,Acu-Link.com,2013-04-27 05:21:00,
2013-04-27 01:36:00,52.9,52.6,30.21,NNW,337,0.0,-999.0,99,-99.99,,,0.09,Acu-Link.com,2013-04-27 05:36:00,
2013-04-27 01:51:00,52.7,52.4,30.21,SW,225,0.0,-999.0,99,-99.99,,,0.12,Acu-Link.com,2013-04-27 05:51:00,
2013-04-27 02:06:00,52.7,52.4,30.19,SSE,157,0.0,-999.0,99,-99.99,,,0.16,Acu-Link.com,2013-04-27 06:06:00,
2013-04-27 02:21:00,52.5,52.2,30.19,West,270,0.0,-999.0,99,-99.99,,,0.18,Acu-Link.com,2013-04-27 06:21:00,
2013-04-27 02:37:00,52.3,52.0,30.18,South,180,0.0,-999.0,99,-99.99,,,0.25,Acu-Link.com,2013-04-27 06:37:00,
2013-04-27 02:52:00,52.0,51.7,30.17,WSW,247,0.0,-999.0,99,-99.99,,,0.26,Acu-Link.com,2013-04-27 06:52:00,
2013-04-27 03:07:00,51.8,51.5,30.16,East,90,0.0,-999.0,99,-99.99,,,0.26,Acu-Link.com,2013-04-27 07:07:00,
2013-04-27 03:22:00,51.8,51.5,30.15,West,270,0.0,-999.0,99,-99.99,,,0.27,Acu-Link.com,2013-04-27 07:22:00,
2013-04-27 03:37:00,51.8,51.5,30.13,NE,45,0.0,-999.0,99,-99.99,,,0.28,Acu-Link.com,2013-04-27 07:37:00,
2013-04-27 03:52:00,51.6,51.3,30.12,North,0,2.7,-999.0,99,-99.99,,,0.29,Acu-Link.com,2013-04-27 07:52:00,
2013-04-27 04:07:00,51.6,51.3,30.14,ENE,67,0.0,-999.0,99,-99.99,,,0.31,Acu-Link.com,2013-04-27 08:07:00,
2013-04-27 04:23:00,51.6,51.3,30.14,NNE,22,2.2,-999.0,99,-99.99,,,0.32,Acu-Link.com,2013-04-27 08:23:00,
2013-04-27 04:38:00,51.6,51.3,30.16,North,0,0.0,-999.0,99,-99.99,,,0.41,Acu-Link.com,2013-04-27 08:38:00,
2013-04-27 04:53:00,51.6,51.3,30.16,East,90,0.0,-999.0,99,-99.99,,,0.42,Acu-Link.com,2013-04-27 08:53:00,
2013-04-27 05:08:00,51.6,51.3,30.15,NNE,22,2.7,-999.0,99,-99.99,,,0.43,Acu-Link.com,2013-04-27 09:08:00,
2013-04-27 05:23:00,51.4,51.1,30.15,NE,45,1.1,-999.0,99,-99.99,,,0.44,Acu-Link.com,2013-04-27 09:23:00,
2013-04-27 05:38:00,51.4,51.1,30.13,SE,135,0.0,-999.0,99,-99.99,,,0.44,Acu-Link.com,2013-04-27 09:38:00,
2013-04-27 05:53:00,51.4,51.1,30.12,NNW,337,0.0,-999.0,99,-99.99,,,0.45,Acu-Link.com,2013-04-27 09:53:00,
2013-04-27 06:09:00,51.4,51.1,30.11,WSW,247,0.0,-999.0,99,-99.99,,,0.45,Acu-Link.com,2013-04-27 10:09:00,
2013-04-27 06:24:00,51.4,51.1,30.11,NNW,337,0.0,-999.0,99,-99.99,,,0.45,Acu-Link.com,2013-04-27 10:24:00,
2013-04-27 06:39:00,51.4,51.1,30.10,East,90,0.0,-999.0,99,-99.99,,,0.45,Acu-Link.com,2013-04-27 10:39:00,
2013-04-27 06:54:00,51.4,51.1,30.10,NE,45,1.1,-999.0,99,-99.99,,,0.46,Acu-Link.com,2013-04-27 10:54:00,
2013-04-27 07:09:00,51.4,51.1,30.11,NE,45,0.0,-999.0,99,-99.99,,,0.46,Acu-Link.com,2013-04-27 11:09:00,
2013-04-27 07:24:00,51.8,51.5,30.12,South,180,0.0,-999.0,99,-99.99,,,0.46,Acu-Link.com,2013-04-27 11:24:00,
2013-04-27 07:39:00,51.8,51.5,30.11,ESE,112,1.7,-999.0,99,-99.99,,,0.46,Acu-Link.com,2013-04-27 11:39:00,
2013-04-27 07:54:00,52.3,52.0,30.11,ESE,112,0.0,-999.0,99,-99.99,,,0.47,Acu-Link.com,2013-04-27 11:54:00,
2013-04-27 08:10:00,52.5,52.2,30.10,NE,45,0.0,-999.0,99,-99.99,,,0.49,Acu-Link.com,2013-04-27 12:10:00,
2013-04-27 08:25:00,53.4,53.1,30.10,ENE,67,0.0,-999.0,99,-99.99,,,0.49,Acu-Link.com,2013-04-27 12:25:00,
2013-04-27 08:40:00,53.4,53.1,30.10,WNW,292,0.0,-999.0,99,-99.99,,,0.49,Acu-Link.com,2013-04-27 12:40:00,
2013-04-27 08:55:00,53.8,53.5,30.10,North,0,0.0,-999.0,99,-99.99,,,0.49,Acu-Link.com,2013-04-27 12:55:00,
2013-04-27 09:10:00,54.5,54.2,30.09,NNW,337,0.0,-999.0,99,-99.99,,,0.49,Acu-Link.com,2013-04-27 13:10:00,
2013-04-27 09:25:00,55.4,55.1,30.10,North,0,0.0,-999.0,99,-99.99,,,0.49,Acu-Link.com,2013-04-27 13:25:00,
2013-04-27 09:40:00,55.6,55.3,30.11,ENE,67,0.0,-999.0,99,-99.99,,,0.49,Acu-Link.com,2013-04-27 13:40:00,
2013-04-27 09:55:00,55.4,55.1,30.12,East,90,0.0,-999.0,99,-99.99,,,0.49,Acu-Link.com,2013-04-27 13:55:00,
2013-04-27 10:11:00,55.2,54.9,30.12,West,270,2.2,-999.0,99,-99.99,,,0.49,Acu-Link.com,2013-04-27 14:11:00,
2013-04-27 10:26:00,55.8,55.5,30.11,ENE,67,2.2,-999.0,99,-99.99,,,0.50,Acu-Link.com,2013-04-27 14:26:00,
2013-04-27 10:41:00,56.7,56.4,30.11,North,0,1.7,-999.0,99,-99.99,,,0.51,Acu-Link.com,2013-04-27 14:41:00,
2013-04-27 10:56:00,56.3,56.0,30.13,NW,315,2.7,-999.0,99,-99.99,,,0.51,Acu-Link.com,2013-04-27 14:56:00,
2013-04-27 11:11:00,55.6,55.3,30.14,NNW,337,2.2,-999.0,99,-99.99,,,0.51,Acu-Link.com,2013-04-27 15:11:00,
2013-04-27 11:26:00,55.6,55.3,30.14,NW,315,0.0,-999.0,99,-99.99,,,0.52,Acu-Link.com,2013-04-27 15:26:00,
2013-04-27 11:41:00,55.6,55.3,30.14,NW,315,2.7,-999.0,99,-99.99,,,0.54,Acu-Link.com,2013-04-27 15:41:00,
2013-04-27 11:56:00,55.2,54.9,30.15,NE,45,2.7,-999.0,99,-99.99,,,0.55,Acu-Link.com,2013-04-27 15:56:00,
2013-04-27 12:12:00,55.2,54.9,30.16,East,90,1.7,-999.0,99,-99.99,,,0.55,Acu-Link.com,2013-04-27 16:12:00,
2013-04-27 12:27:00,55.0,54.7,30.13,East,90,2.2,-999.0,99,-99.99,,,0.59,Acu-Link.com,2013-04-27 16:27:00,
2013-04-27 12:42:00,55.2,54.6,30.12,ENE,67,0.0,-999.0,98,-99.99,,,0.59,Acu-Link.com,2013-04-27 16:42:00,
2013-04-27 12:57:00,55.6,55.0,30.09,NE,45,0.0,-999.0,98,-99.99,,,0.60,Acu-Link.com,2013-04-27 16:57:00,
2013-04-27 13:12:00,56.7,55.0,30.10,SW,225,2.2,-999.0,94,-99.99,,,0.60,Acu-Link.com,2013-04-27 17:12:00,
2013-04-27 13:27:00,56.5,54.2,30.10,NNE,22,0.0,-999.0,92,-99.99,,,0.60,Acu-Link.com,2013-04-27 17:27:00,
2013-04-27 13:42:00,54.7,54.1,30.14,West,270,4.2,-999.0,98,-99.99,,,0.60,Acu-Link.com,2013-04-27 17:42:00,
2013-04-27 13:57:00,54.3,54.0,30.13,North,0,1.7,-999.0,99,-99.99,,,0.62,Acu-Link.com,2013-04-27 17:57:00,
2013-04-27 14:12:00,54.7,54.4,30.11,NNE,22,0.0,-999.0,99,-99.99,,,0.66,Acu-Link.com,2013-04-27 18:12:00,
2013-04-27 14:28:00,55.4,55.1,30.10,NW,315,0.0,-999.0,99,-99.99,,,0.68,Acu-Link.com,2013-04-27 18:28:00,
2013-04-27 14:43:00,55.4,55.1,30.08,NE,45,1.7,-999.0,99,-99.99,,,0.68,Acu-Link.com,2013-04-27 18:43:00,
2013-04-27 14:58:00,57.2,56.4,30.06,NE,45,2.2,-999.0,97,-99.99,,,0.68,Acu-Link.com,2013-04-27 18:58:00,
2013-04-27 15:13:00,57.4,55.7,30.07,East,90,0.0,-999.0,94,-99.99,,,0.68,Acu-Link.com,2013-04-27 19:13:00,
2013-04-27 15:28:00,57.9,56.5,30.05,WNW,292,0.0,-999.0,95,-99.99,,,0.68,Acu-Link.com,2013-04-27 19:28:00,
2013-04-27 15:43:00,57.7,56.0,30.04,ENE,67,0.0,-999.0,94,-99.99,,,0.68,Acu-Link.com,2013-04-27 19:43:00,
2013-04-27 15:58:00,59.2,56.6,30.04,West,270,0.0,-999.0,91,-99.99,,,0.68,Acu-Link.com,2013-04-27 19:58:00,
2013-04-27 16:14:00,58.6,56.0,30.03,West,270,0.0,-999.0,91,-99.99,,,0.68,Acu-Link.com,2013-04-27 20:14:00,
2013-04-27 16:29:00,58.3,55.7,30.03,NNE,22,0.0,-999.0,91,-99.99,,,0.68,Acu-Link.com,2013-04-27 20:29:00,
2013-04-27 16:44:00,57.6,55.9,30.03,NNW,337,0.0,-999.0,94,-99.99,,,0.68,Acu-Link.com,2013-04-27 20:44:00,
2013-04-27 16:59:00,56.3,54.3,30.03,ENE,67,0.0,-999.0,93,-99.99,,,0.68,Acu-Link.com,2013-04-27 20:59:00,
2013-04-27 17:14:00,55.9,53.9,30.03,North,0,0.0,-999.0,93,-99.99,,,0.68,Acu-Link.com,2013-04-27 21:14:00,
2013-04-27 17:29:00,57.0,54.4,30.00,NE,45,2.2,-999.0,91,-99.99,,,0.68,Acu-Link.com,2013-04-27 21:29:00,
2013-04-27 17:44:00,58.1,54.6,29.99,SW,225,2.2,-999.0,88,-99.99,,,0.68,Acu-Link.com,2013-04-27 21:44:00,
2013-04-27 17:59:00,59.9,54.1,29.97,West,270,3.2,-999.0,81,-99.99,,,0.68,Acu-Link.com,2013-04-27 21:59:00,
2013-04-27 18:14:00,60.8,53.5,29.98,SSW,202,4.7,-999.0,77,-99.99,,,0.68,Acu-Link.com,2013-04-27 22:14:00,
2013-04-27 18:30:00,61.7,53.3,29.98,West,270,4.2,-999.0,74,-99.99,,,0.68,Acu-Link.com,2013-04-27 22:30:00,
2013-04-27 18:45:00,62.1,55.9,29.97,ENE,67,0.0,-999.0,80,-99.99,,,0.68,Acu-Link.com,2013-04-27 22:45:00,
2013-04-27 19:00:00,62.4,57.2,29.97,WNW,292,0.0,-999.0,83,-99.99,,,0.68,Acu-Link.com,2013-04-27 23:00:00,
2013-04-27 19:15:00,60.8,57.2,29.97,NE,45,1.7,-999.0,88,-99.99,,,0.68,Acu-Link.com,2013-04-27 23:15:00,
2013-04-27 19:30:00,59.5,57.2,29.96,NE,45,0.0,-999.0,92,-99.99,,,0.68,Acu-Link.com,2013-04-27 23:30:00,
2013-04-27 19:45:00,58.6,57.2,29.94,SSE,157,0.0,-999.0,95,-99.99,,,0.68,Acu-Link.com,2013-04-27 23:45:00,
2013-04-27 20:01:00,57.9,56.8,29.96,SSW,202,0.0,-999.0,96,-99.99,,,0.68,Acu-Link.com,2013-04-28 00:01:00,
2013-04-27 20:16:00,57.2,56.6,29.95,SW,225,0.0,-999.0,98,-99.99,,,0.68,Acu-Link.com,2013-04-28 00:16:00,
2013-04-27 20:31:00,56.7,56.4,29.94,NNE,22,0.0,-999.0,99,-99.99,,,0.68,Acu-Link.com,2013-04-28 00:31:00,
2013-04-27 20:46:00,55.8,55.5,29.94,NNW,337,0.0,-999.0,99,-99.99,,,0.68,Acu-Link.com,2013-04-28 00:46:00,
2013-04-27 21:01:00,55.4,55.1,29.94,East,90,0.0,-999.0,99,-99.99,,,0.68,Acu-Link.com,2013-04-28 01:01:00,
2013-04-27 21:16:00,55.4,55.1,29.94,NE,45,0.0,-999.0,99,-99.99,,,0.68,Acu-Link.com,2013-04-28 01:16:00,
2013-04-27 21:31:00,55.2,54.9,29.93,West,270,0.0,-999.0,99,-99.99,,,0.68,Acu-Link.com,2013-04-28 01:31:00,
2013-04-27 21:46:00,55.0,54.7,29.92,South,180,0.0,-999.0,99,-99.99,,,0.68,Acu-Link.com,2013-04-28 01:46:00,
2013-04-27 22:01:00,54.9,54.6,29.91,WSW,247,0.0,-999.0,99,-99.99,,,0.68,Acu-Link.com,2013-04-28 02:01:00,
2013-04-27 22:17:00,54.7,54.4,29.93,ESE,112,0.0,-999.0,99,-99.99,,,0.68,Acu-Link.com,2013-04-28 02:17:00,
2013-04-27 22:32:00,54.5,54.2,29.93,SE,135,0.0,-999.0,99,-99.99,,,0.68,Acu-Link.com,2013-04-28 02:32:00,
2013-04-27 22:47:00,54.1,53.8,29.93,East,90,0.0,-999.0,99,-99.99,,,0.68,Acu-Link.com,2013-04-28 02:47:00,
2013-04-27 23:02:00,54.0,53.7,29.94,SSW,202,0.0,-999.0,99,-99.99,,,0.68,Acu-Link.com,2013-04-28 03:02:00,
2013-04-27 23:17:00,54.1,53.8,29.93,East,90,0.0,-999.0,99,-99.99,,,0.68,Acu-Link.com,2013-04-28 03:17:00,
2013-04-27 23:32:00,54.0,53.7,29.94,ESE,112,0.0,-999.0,99,-99.99,,,0.68,Acu-Link.com,2013-04-28 03:32:00,
2013-04-27 23:47:00,53.8,53.5,29.94,SSW,202,0.0,-999.0,99,-99.99,,,0.68,Acu-Link.com,2013-04-28 03:47:00,